Burgdorf, Idaho
Current Conditions -  °F | °C
As of 3:51 PM on Sunday 21 Dec 2014 (Local Time) from KMYL Reporting Station
Overcast Overcast  
Wind Chill: 30°   Ceiling: 8500
Heat Index: 35°   Visibility: 10mi
Dew Point: 32°   Wind: 6mph
Humidity: 89%   Direction: 270°W
Pressure: 29.93"   Gusts: NA
Location:  44.8627°N, 115.492°W
Report Text: KMYL 212251Z AUTO 27005KT 10SM FEW060 OVC085 02/00 A2993 RMK AO2 RAE02 SLP150 P0000 T00170000
Loading
Personal Weather Stations






























Interactive Weather Map New forecast layout! Learn more

10-Day Weather Forecast

Advertisements
Track Severe Weather on mobile